createdAt,value
2022-10-20T00:00:08.797Z,7.70
2022-10-20T00:02:38.489Z,8.17
2022-10-20T00:05:08.372Z,8.10
2022-10-20T00:07:37.310Z,8.00
2022-10-20T00:10:07.151Z,7.80
2022-10-20T00:12:37.777Z,7.73
2022-10-20T00:15:07.974Z,8.43
2022-10-20T00:17:36.897Z,8.40
2022-10-20T00:20:07.072Z,8.40
2022-10-20T00:22:36.266Z,7.47
2022-10-20T00:25:06.313Z,8.43
2022-10-20T00:27:35.225Z,8.07
2022-10-20T00:30:06.242Z,8.60
2022-10-20T00:32:35.364Z,7.80
2022-10-20T00:35:04.748Z,8.20
2022-10-20T00:37:33.973Z,8.00
2022-10-20T00:40:02.759Z,8.50
2022-10-20T00:42:31.685Z,7.57
2022-10-20T00:45:02.279Z,8.33
2022-10-20T00:47:40.274Z,8.03
2022-10-20T00:50:13.757Z,8.07
2022-10-20T00:52:44.319Z,7.77
2022-10-20T00:55:16.681Z,7.67
2022-10-20T00:57:50.589Z,8.20
2022-10-20T01:00:20.969Z,8.50
2022-10-20T01:02:55.598Z,8.37
2022-10-20T01:05:24.533Z,7.80
2022-10-20T01:07:54.104Z,7.90
2022-10-20T01:10:24.302Z,8.27
2022-10-20T01:13:00.464Z,8.17
2022-10-20T01:15:39.499Z,8.40
2022-10-20T01:18:16.828Z,8.40
2022-10-20T01:21:14.686Z,8.60
2022-10-20T01:24:32.624Z,8.27
2022-10-20T01:27:33.012Z,8.83
2022-10-20T01:30:13.239Z,8.43
2022-10-20T01:33:01.599Z,8.80
2022-10-20T01:35:41.068Z,8.90
2022-10-20T01:38:18.617Z,9.27
2022-10-20T01:40:53.323Z,8.43
2022-10-20T01:43:26.505Z,8.50
2022-10-20T01:45:56.768Z,8.47
2022-10-20T01:48:29.690Z,8.60
2022-10-20T01:50:59.273Z,9.00
2022-10-20T01:53:29.451Z,8.87
2022-10-20T01:56:00.744Z,8.70
2022-10-20T01:58:51.231Z,8.80
2022-10-20T02:01:29.733Z,8.97
2022-10-20T02:04:01.669Z,9.27
2022-10-20T02:06:41.406Z,9.33
2022-10-20T02:09:16.638Z,9.20
2022-10-20T02:11:51.578Z,9.47
2022-10-20T02:14:23.752Z,9.13
2022-10-20T02:16:57.395Z,9.70
2022-10-20T02:19:30.288Z,9.20
2022-10-20T02:21:59.546Z,9.70
2022-10-20T02:24:35.193Z,9.77
2022-10-20T02:27:10.157Z,9.30
2022-10-20T02:29:44.250Z,9.37
2022-10-20T02:32:14.894Z,9.13
2022-10-20T02:34:45.202Z,9.43
2022-10-20T02:37:14.215Z,9.70
2022-10-20T02:39:43.023Z,9.20
2022-10-20T02:42:12.716Z,9.70
2022-10-20T02:44:43.049Z,9.60
2022-10-20T02:47:12.020Z,9.27
2022-10-20T02:49:40.830Z,9.37
2022-10-20T02:52:10.047Z,8.97
2022-10-20T02:54:38.825Z,9.13
2022-10-20T02:57:07.640Z,9.03
2022-10-20T02:59:36.623Z,9.57
2022-10-20T03:02:07.071Z,9.33
2022-10-20T03:04:36.210Z,9.50
2022-10-20T03:07:05.331Z,9.27
2022-10-20T03:09:34.214Z,9.30
2022-10-20T03:12:03.178Z,8.67
2022-10-20T03:14:32.281Z,8.53
2022-10-20T03:17:01.131Z,8.90
2022-10-20T03:19:31.432Z,9.23
2022-10-20T03:22:00.251Z,8.90
2022-10-20T03:24:29.319Z,9.27
2022-10-20T03:26:58.117Z,8.33
2022-10-20T03:29:27.123Z,8.70
2022-10-20T03:31:56.003Z,8.87
2022-10-20T03:34:25.047Z,8.97
2022-10-20T03:36:55.347Z,8.67
2022-10-20T03:39:24.227Z,9.40
2022-10-20T03:41:53.314Z,8.90
2022-10-20T03:44:22.366Z,9.07
2022-10-20T03:46:51.415Z,8.63
2022-10-20T03:49:20.402Z,9.37
2022-10-20T03:51:49.530Z,8.83
2022-10-20T03:54:20.018Z,8.53
2022-10-20T03:56:49.095Z,9.10
2022-10-20T03:59:18.003Z,9.10
2022-10-20T04:01:47.610Z,8.63
2022-10-20T04:04:16.717Z,9.20
2022-10-20T04:06:45.838Z,9.30
2022-10-20T04:09:14.810Z,8.60
2022-10-20T04:11:45.098Z,9.30
2022-10-20T04:14:14.038Z,9.03
2022-10-20T04:16:42.973Z,9.13
2022-10-20T04:19:12.395Z,9.70
2022-10-20T04:21:41.175Z,9.53
2022-10-20T04:24:10.054Z,9.43
2022-10-20T04:26:38.931Z,9.53
2022-10-20T04:29:09.123Z,9.33
2022-10-20T04:31:37.899Z,9.43
2022-10-20T04:34:06.995Z,9.53
2022-10-20T04:36:35.699Z,9.90
2022-10-20T04:39:07.065Z,8.93
2022-10-20T04:41:36.239Z,9.40
2022-10-20T04:44:05.178Z,9.10
2022-10-20T04:46:35.387Z,9.40
2022-10-20T04:49:05.510Z,9.13
2022-10-20T04:51:34.389Z,9.87
2022-10-20T04:54:03.122Z,9.30
2022-10-20T04:56:31.911Z,9.00
2022-10-20T04:59:00.791Z,9.13
2022-10-20T05:01:32.039Z,9.10
2022-10-20T05:04:02.534Z,9.50
2022-10-20T05:06:32.605Z,9.27
2022-10-20T05:09:03.118Z,9.37
2022-10-20T05:11:35.321Z,9.30
2022-10-20T05:14:04.559Z,9.97
2022-10-20T05:16:33.281Z,9.40
2022-10-20T05:19:03.645Z,9.70
2022-10-20T05:21:34.686Z,9.20
2022-10-20T05:24:06.599Z,9.40
2022-10-20T05:26:37.343Z,9.73
2022-10-20T05:29:08.667Z,9.07
2022-10-20T05:31:38.838Z,9.50
2022-10-20T05:34:10.206Z,9.30
2022-10-20T05:36:39.787Z,9.77
2022-10-20T05:39:08.610Z,9.30
2022-10-20T05:41:39.010Z,9.53
2022-10-20T05:44:09.695Z,9.73
2022-10-20T05:46:41.422Z,9.40
2022-10-20T05:49:15.859Z,9.67
2022-10-20T05:51:46.468Z,9.60
2022-10-20T05:54:16.125Z,9.73
2022-10-20T05:56:45.298Z,9.67
2022-10-20T05:59:15.043Z,10.07
2022-10-20T06:01:49.091Z,9.63
2022-10-20T06:04:23.341Z,9.97
2022-10-20T06:06:52.698Z,9.03
2022-10-20T06:09:22.693Z,9.80
2022-10-20T06:11:52.208Z,9.77
2022-10-20T06:14:22.440Z,9.47
2022-10-20T06:16:52.896Z,10.00
2022-10-20T06:19:23.835Z,9.70
2022-10-20T06:21:53.729Z,9.23
2022-10-20T06:24:23.097Z,9.90
2022-10-20T06:26:52.395Z,9.73
2022-10-20T06:29:21.258Z,9.80
2022-10-20T06:31:51.852Z,10.60
2022-10-20T06:34:23.945Z,10.53
2022-10-20T06:36:53.524Z,9.83
2022-10-20T06:39:24.848Z,10.27
2022-10-20T06:41:55.353Z,10.20
2022-10-20T06:44:25.478Z,10.37
2022-10-20T06:46:54.621Z,10.40
2022-10-20T06:49:25.110Z,10.13
2022-10-20T06:51:53.938Z,9.70
2022-10-20T06:54:23.006Z,9.67
2022-10-20T06:56:52.062Z,9.60
2022-10-20T06:59:21.118Z,9.50
2022-10-20T07:01:50.192Z,9.37
2022-10-20T07:04:19.198Z,9.07
2022-10-20T07:06:49.303Z,9.60
2022-10-20T07:09:20.756Z,10.07
2022-10-20T07:11:53.118Z,11.27
2022-10-20T07:14:22.227Z,10.20
2022-10-20T07:16:51.078Z,9.50
2022-10-20T07:19:20.293Z,9.37
2022-10-20T07:21:50.541Z,8.80
2022-10-20T07:24:19.419Z,9.40
2022-10-20T07:26:48.264Z,9.70
2022-10-20T07:29:16.958Z,9.10
2022-10-20T07:31:47.714Z,8.23
2022-10-20T07:34:27.458Z,8.10
2022-10-20T07:36:58.955Z,8.50
2022-10-20T07:39:28.472Z,8.23
2022-10-20T07:41:57.605Z,7.73
2022-10-20T07:44:26.417Z,8.00
2022-10-20T07:46:55.274Z,7.30
2022-10-20T07:49:44.001Z,7.87
2022-10-20T07:52:16.279Z,7.83
2022-10-20T07:54:45.545Z,7.77
2022-10-20T07:57:14.731Z,7.47
2022-10-20T07:59:43.732Z,7.20
2022-10-20T08:02:13.713Z,7.17
2022-10-20T08:04:44.081Z,7.20
2022-10-20T08:07:14.846Z,7.10
2022-10-20T08:12:17.818Z,6.20
2022-10-20T08:14:46.875Z,6.30
2022-10-20T08:17:15.615Z,6.17
2022-10-20T08:22:36.196Z,6.70
2022-10-20T08:25:06.170Z,6.13
2022-10-20T08:27:35.203Z,6.97
2022-10-20T08:30:23.051Z,6.60
2022-10-20T08:32:52.898Z,6.63
2022-10-20T08:35:23.137Z,6.27
2022-10-20T08:37:53.611Z,6.07
2022-10-20T08:40:28.119Z,6.70
2022-10-20T08:42:57.702Z,7.20
2022-10-20T08:45:29.120Z,6.80
2022-10-20T08:48:00.667Z,6.47
2022-10-20T08:50:32.120Z,6.03
2022-10-20T08:53:02.875Z,7.23
2022-10-20T08:55:34.380Z,6.23
2022-10-20T08:58:06.561Z,6.57
2022-10-20T09:00:39.435Z,7.03
2022-10-20T09:03:18.183Z,6.40
2022-10-20T09:05:52.132Z,6.87
2022-10-20T09:08:24.542Z,6.30
2022-10-20T09:10:55.223Z,6.00
2022-10-20T09:13:26.520Z,6.30
2022-10-20T09:16:00.455Z,6.50
2022-10-20T09:18:29.394Z,6.10
2022-10-20T09:21:01.792Z,6.33
2022-10-20T09:23:41.866Z,5.90
2022-10-20T09:26:30.365Z,5.80
2022-10-20T09:29:13.538Z,6.07
2022-10-20T09:31:46.014Z,5.83
2022-10-20T09:34:24.239Z,5.70
2022-10-20T09:36:58.894Z,5.30
2022-10-20T09:39:32.047Z,5.33
2022-10-20T09:42:03.839Z,5.10
2022-10-20T09:44:36.625Z,4.90
2022-10-20T09:47:05.790Z,5.37
2022-10-20T09:49:37.682Z,4.73
2022-10-20T09:52:19.996Z,5.00
2022-10-20T09:54:51.794Z,5.30
2022-10-20T09:57:23.369Z,4.80
2022-10-20T09:59:54.150Z,4.23
2022-10-20T10:02:32.205Z,4.50
2022-10-20T10:05:20.988Z,4.67
2022-10-20T10:08:00.850Z,4.60
2022-10-20T10:10:32.629Z,4.20
2022-10-20T10:15:40.956Z,4.30
2022-10-20T10:18:22.482Z,4.10
2022-10-20T10:20:59.765Z,4.30
2022-10-20T10:23:30.188Z,4.00
2022-10-20T10:26:02.279Z,4.20
2022-10-20T10:28:37.906Z,4.20
2022-10-20T10:31:23.021Z,3.87
2022-10-20T10:33:57.017Z,3.90
2022-10-20T10:36:36.324Z,4.27
2022-10-20T10:39:12.079Z,4.00
2022-10-20T10:41:59.943Z,4.23
2022-10-20T10:44:41.914Z,3.83
2022-10-20T10:47:37.810Z,3.60
2022-10-20T10:50:27.671Z,3.30
2022-10-20T10:53:08.079Z,3.30
2022-10-20T10:55:49.108Z,2.83
2022-10-20T10:58:41.209Z,2.80
2022-10-20T11:01:25.064Z,3.30
2022-10-20T11:04:30.337Z,3.00
2022-10-20T11:07:07.387Z,2.90
2022-10-20T11:09:45.322Z,2.70
2022-10-20T11:12:33.363Z,2.50
2022-10-20T11:15:19.341Z,2.57
2022-10-20T11:17:57.079Z,2.63
2022-10-20T11:20:35.084Z,2.30
2022-10-20T11:23:28.459Z,2.43
2022-10-20T11:26:04.911Z,2.43
2022-10-20T11:28:44.181Z,2.67
2022-10-20T11:31:23.741Z,2.50
2022-10-20T11:33:59.188Z,2.67
2022-10-20T11:36:36.194Z,2.90
2022-10-20T11:39:06.962Z,2.67
2022-10-20T11:44:16.752Z,2.60
2022-10-20T11:46:52.652Z,2.23
2022-10-20T11:49:21.737Z,2.60
2022-10-20T11:52:15.092Z,2.50
2022-10-20T11:55:06.009Z,2.33
2022-10-20T11:57:55.395Z,2.63
2022-10-20T12:01:06.373Z,2.40
2022-10-20T12:04:05.631Z,2.30
2022-10-20T12:07:03.239Z,3.00
2022-10-20T12:10:00.162Z,2.40
2022-10-20T12:12:35.056Z,2.37
2022-10-20T12:15:21.687Z,2.50
2022-10-20T12:17:53.246Z,2.40
2022-10-20T12:21:01.974Z,2.57
2022-10-20T12:24:05.490Z,2.57
2022-10-20T12:27:17.456Z,2.50
2022-10-20T12:29:58.822Z,2.63
2022-10-20T12:32:54.545Z,2.60
2022-10-20T12:35:59.558Z,2.57
2022-10-20T12:38:30.792Z,2.80
2022-10-20T12:41:02.966Z,3.20
2022-10-20T12:43:36.469Z,2.90
2022-10-20T12:46:10.944Z,2.83
2022-10-20T12:48:46.992Z,3.00
2022-10-20T12:51:24.472Z,3.00
2022-10-20T12:54:02.178Z,3.23
2022-10-20T12:56:38.119Z,3.00
2022-10-20T12:59:23.397Z,3.07
2022-10-20T13:02:42.643Z,3.13
2022-10-20T13:05:42.021Z,3.13
2022-10-20T13:08:33.389Z,3.07
2022-10-20T13:11:42.661Z,3.30
2022-10-20T13:14:47.562Z,3.40
2022-10-20T13:17:28.474Z,3.40
2022-10-20T13:20:02.033Z,3.30
2022-10-20T13:22:37.787Z,3.50
2022-10-20T13:25:17.570Z,3.33
2022-10-20T13:27:50.096Z,3.40
2022-10-20T13:30:23.523Z,3.50
2022-10-20T13:33:17.892Z,3.70
2022-10-20T13:36:00.603Z,3.50
2022-10-20T13:38:36.893Z,3.70
2022-10-20T13:41:14.891Z,4.23
2022-10-20T13:43:57.559Z,4.20
2022-10-20T13:46:40.514Z,3.90
2022-10-20T13:49:34.919Z,3.70
2022-10-20T13:52:07.456Z,3.80
2022-10-20T13:54:44.866Z,3.73
2022-10-20T13:57:28.907Z,4.00
2022-10-20T14:00:01.150Z,4.47
2022-10-20T14:02:32.478Z,4.13
2022-10-20T14:05:07.457Z,4.07
2022-10-20T14:07:38.295Z,4.20
2022-10-20T14:10:09.467Z,3.93
2022-10-20T14:12:40.565Z,4.70
2022-10-20T14:15:15.483Z,4.00
2022-10-20T14:17:55.686Z,4.03
2022-10-20T14:20:25.796Z,4.57
2022-10-20T14:22:55.769Z,4.30
2022-10-20T14:25:25.550Z,4.00
2022-10-20T14:27:55.846Z,4.40
2022-10-20T14:30:26.692Z,4.20
2022-10-20T14:32:56.047Z,4.20
2022-10-20T14:35:33.941Z,4.17
2022-10-20T14:38:06.130Z,3.93
2022-10-20T14:40:37.048Z,4.10
2022-10-20T14:43:08.557Z,4.30
2022-10-20T14:45:38.852Z,3.90
2022-10-20T14:48:15.014Z,4.33
2022-10-20T14:50:44.024Z,4.10
2022-10-20T14:53:34.794Z,4.20
2022-10-20T14:56:04.542Z,4.30
2022-10-20T14:58:39.121Z,4.30
2022-10-20T15:01:22.523Z,4.27
2022-10-20T15:04:14.175Z,4.47
2022-10-20T15:06:43.654Z,4.50
2022-10-20T15:09:20.959Z,4.73
2022-10-20T15:11:50.380Z,4.63
2022-10-20T15:14:19.742Z,4.30
2022-10-20T15:16:50.838Z,4.47
2022-10-20T15:19:29.349Z,4.70
2022-10-20T15:22:08.971Z,4.77
2022-10-20T15:24:38.539Z,5.33
2022-10-20T15:27:14.892Z,4.63
2022-10-20T15:29:49.674Z,4.93
2022-10-20T15:32:20.103Z,5.20
2022-10-20T15:34:48.997Z,4.73
2022-10-20T15:37:18.255Z,4.87
2022-10-20T15:39:47.287Z,4.73
2022-10-20T15:42:16.568Z,4.53
2022-10-20T15:44:46.194Z,5.50
2022-10-20T15:47:15.014Z,5.03
2022-10-20T15:49:45.298Z,5.00
2022-10-20T15:52:14.436Z,4.53
2022-10-20T15:54:45.232Z,5.03
2022-10-20T15:57:15.313Z,5.30
2022-10-20T15:59:44.354Z,5.10
2022-10-20T16:02:13.735Z,4.50
2022-10-20T16:04:43.061Z,5.40
2022-10-20T16:07:13.755Z,4.83
2022-10-20T16:09:42.808Z,5.20
2022-10-20T16:12:12.320Z,5.20
2022-10-20T16:14:42.402Z,4.97
2022-10-20T16:17:11.582Z,5.00
2022-10-20T16:19:40.590Z,5.57
2022-10-20T16:22:09.718Z,5.33
2022-10-20T16:24:40.040Z,5.47
2022-10-20T16:27:09.059Z,5.17
2022-10-20T16:29:37.834Z,5.40
2022-10-20T16:32:06.799Z,5.30
2022-10-20T16:34:35.526Z,4.83
2022-10-20T16:37:04.466Z,5.40
2022-10-20T16:39:33.494Z,5.10
2022-10-20T16:42:03.991Z,5.00
2022-10-20T16:44:33.343Z,5.50
2022-10-20T16:47:02.335Z,5.70
2022-10-20T16:49:31.447Z,5.93
2022-10-20T16:52:01.679Z,5.00
2022-10-20T16:54:30.995Z,5.90
2022-10-20T16:57:00.316Z,5.83
2022-10-20T16:59:30.491Z,5.63
2022-10-20T17:01:59.670Z,5.47
2022-10-20T17:04:28.640Z,5.50
2022-10-20T17:06:57.651Z,5.90
2022-10-20T17:09:26.483Z,5.43
2022-10-20T17:11:55.577Z,5.40
2022-10-20T17:14:24.674Z,5.50
2022-10-20T17:16:55.026Z,5.57
2022-10-20T17:19:23.944Z,5.87
2022-10-20T17:21:56.101Z,5.60
2022-10-20T17:24:26.511Z,5.77
2022-10-20T17:26:55.480Z,5.70
2022-10-20T17:29:26.268Z,5.83
2022-10-20T17:31:56.999Z,5.70
2022-10-20T17:34:25.922Z,5.87
2022-10-20T17:36:54.876Z,5.53
2022-10-20T17:39:24.758Z,5.73
2022-10-20T17:41:54.159Z,5.67
2022-10-20T17:44:22.968Z,5.57
2022-10-20T17:46:52.159Z,5.43
2022-10-20T17:49:22.567Z,5.87
2022-10-20T17:51:51.599Z,5.50
2022-10-20T17:54:20.545Z,5.90
2022-10-20T17:56:52.314Z,5.60
2022-10-20T17:59:21.487Z,5.93
2022-10-20T18:01:50.467Z,6.23
2022-10-20T18:04:19.494Z,6.00
2022-10-20T18:06:49.638Z,5.60
2022-10-20T18:09:19.408Z,5.90
2022-10-20T18:11:51.117Z,6.27
2022-10-20T18:14:20.424Z,6.40
2022-10-20T18:16:49.665Z,5.87
2022-10-20T18:19:20.573Z,5.90
2022-10-20T18:21:51.577Z,6.27
2022-10-20T18:24:20.434Z,6.37
2022-10-20T18:26:49.283Z,6.17
2022-10-20T18:29:18.610Z,6.40
2022-10-20T18:31:49.816Z,6.77
2022-10-20T18:34:21.021Z,6.80
2022-10-20T18:36:52.313Z,6.50
2022-10-20T18:39:21.136Z,6.93
2022-10-20T18:41:52.297Z,6.50
2022-10-20T18:44:21.532Z,6.70
2022-10-20T18:46:51.375Z,6.93
2022-10-20T18:49:21.447Z,6.60
2022-10-20T18:51:51.978Z,6.57
2022-10-20T18:54:23.680Z,6.90
2022-10-20T18:56:52.564Z,7.17
2022-10-20T18:59:22.834Z,6.23
2022-10-20T19:01:51.911Z,6.47
2022-10-20T19:04:21.371Z,6.63
2022-10-20T19:06:52.097Z,6.40
2022-10-20T19:09:22.594Z,6.27
2022-10-20T19:11:51.716Z,6.77
2022-10-20T19:14:20.594Z,7.30
2022-10-20T19:16:50.079Z,7.33
2022-10-20T19:19:19.318Z,7.50
2022-10-20T19:21:48.302Z,7.00
2022-10-20T19:24:20.389Z,6.90
2022-10-20T19:27:02.017Z,6.97
2022-10-20T19:29:37.290Z,6.80
2022-10-20T19:32:06.819Z,7.60
2022-10-20T19:34:36.935Z,6.93
2022-10-20T19:37:07.524Z,7.30
2022-10-20T19:39:40.846Z,7.20
2022-10-20T19:42:10.841Z,7.83
2022-10-20T19:44:40.888Z,7.03
2022-10-20T19:47:10.001Z,6.93
2022-10-20T19:49:40.272Z,7.00
2022-10-20T19:52:09.726Z,6.63
2022-10-20T19:54:40.289Z,7.00
2022-10-20T19:57:08.982Z,6.50
2022-10-20T19:59:37.875Z,7.30
2022-10-20T20:02:06.593Z,7.20
2022-10-20T20:04:35.271Z,6.80
2022-10-20T20:07:04.130Z,7.40
2022-10-20T20:09:32.837Z,6.97
2022-10-20T20:12:03.109Z,7.37
2022-10-20T20:14:32.027Z,6.63
2022-10-20T20:17:00.797Z,7.40
2022-10-20T20:19:29.776Z,6.90
2022-10-20T20:21:58.754Z,7.40
2022-10-20T20:24:27.833Z,7.33
2022-10-20T20:26:56.667Z,8.37
2022-10-20T20:29:27.215Z,8.00
2022-10-20T20:31:56.115Z,8.00
2022-10-20T20:34:25.100Z,6.83
2022-10-20T20:36:53.687Z,7.83
2022-10-20T20:39:22.616Z,7.40
2022-10-20T20:41:51.365Z,6.93
2022-10-20T20:44:20.322Z,7.37
2022-10-20T20:46:50.661Z,7.60
2022-10-20T20:49:19.690Z,7.90
2022-10-20T20:51:48.570Z,7.50
2022-10-20T20:54:17.410Z,7.47
2022-10-20T20:56:45.987Z,7.40
2022-10-20T20:59:15.313Z,7.17
2022-10-20T21:01:45.250Z,6.67
2022-10-20T21:04:15.905Z,8.17
2022-10-20T21:07:03.334Z,8.37
2022-10-20T21:09:32.777Z,7.97
2022-10-20T21:12:02.055Z,7.40
2022-10-20T21:14:31.423Z,7.30
2022-10-20T21:17:00.812Z,6.73
2022-10-20T21:19:31.055Z,7.43
2022-10-20T21:22:01.217Z,7.33
2022-10-20T21:24:30.120Z,7.40
2022-10-20T21:26:59.312Z,7.23
2022-10-20T21:29:28.230Z,6.97
2022-10-20T21:31:58.005Z,7.50
2022-10-20T21:34:27.423Z,7.10
2022-10-20T21:36:57.538Z,7.43
2022-10-20T21:39:26.570Z,7.40
2022-10-20T21:41:55.967Z,7.10
2022-10-20T21:44:24.821Z,7.30
2022-10-20T21:46:53.852Z,7.50
2022-10-20T21:49:25.266Z,7.50
2022-10-20T21:51:58.082Z,7.57
2022-10-20T21:54:29.023Z,7.63
2022-10-20T21:56:58.126Z,7.40
2022-10-20T21:59:28.706Z,8.07
2022-10-20T22:02:01.339Z,7.73
2022-10-20T22:04:31.211Z,7.73
2022-10-20T22:07:01.570Z,8.40
2022-10-20T22:09:30.500Z,7.60
2022-10-20T22:11:59.701Z,7.57
2022-10-20T22:14:30.427Z,7.57
2022-10-20T22:16:59.326Z,8.27
2022-10-20T22:19:28.060Z,8.07
2022-10-20T22:24:35.509Z,7.93
2022-10-20T22:27:15.385Z,7.63
2022-10-20T22:29:57.246Z,7.97
2022-10-20T22:32:26.244Z,7.13
2022-10-20T22:34:55.342Z,8.00
2022-10-20T22:37:24.192Z,7.87
2022-10-20T22:39:54.267Z,8.53
2022-10-20T22:42:24.925Z,8.23
2022-10-20T22:44:53.884Z,8.57
2022-10-20T22:47:22.655Z,7.93
2022-10-20T22:49:51.439Z,8.90
2022-10-20T22:52:20.209Z,8.47
2022-10-20T22:54:49.012Z,8.40
2022-10-20T22:57:19.223Z,8.40
2022-10-20T22:59:47.994Z,8.60
2022-10-20T23:02:16.834Z,8.43
2022-10-20T23:04:45.637Z,8.40
2022-10-20T23:07:14.884Z,8.67
2022-10-20T23:09:43.931Z,7.67
2022-10-20T23:12:12.779Z,8.13
2022-10-20T23:14:43.106Z,8.43
2022-10-20T23:17:12.006Z,7.97
2022-10-20T23:19:41.160Z,8.27
2022-10-20T23:22:09.933Z,8.23
2022-10-20T23:24:39.324Z,8.43
2022-10-20T23:27:08.767Z,8.20
2022-10-20T23:29:37.675Z,8.30
2022-10-20T23:32:08.031Z,8.23
2022-10-20T23:34:36.784Z,8.80
2022-10-20T23:37:06.260Z,8.30
2022-10-20T23:39:34.947Z,7.93
2022-10-20T23:42:07.211Z,8.17
2022-10-20T23:44:36.415Z,8.17
2022-10-20T23:47:05.495Z,7.77
2022-10-20T23:49:36.006Z,8.47
2022-10-20T23:52:05.134Z,8.40
2022-10-20T23:54:34.047Z,8.70
2022-10-20T23:57:02.908Z,8.83
2022-10-20T23:59:31.875Z,8.07
